FDX5135 EDDK-LFPG
Flight info
| Callsign | FDX5135 |
|---|---|
| Flight time | N/A |
| Altitude | 24000 |
| Route | NVO3W NVO M170 LNO/N0397F180 L607 GILOM DCT HUL M617 CIV/N0402F190 Y50 IDOKO/N0391F170 Y50 MATIX |
| Aircraft | MD11/H-SDE1E2E3FGHIJ2J3J4J5M1RWXY/LB1D1 |
Departure
| Time | 2026-05-05 03:37 |
|---|---|
| Airport | Cologne Bonn Airport (EDDK) |
Arrival
| Time | N/A |
|---|---|
| Airport | Charles de Gaulle International Airport (LFPG) |
| Time | Latitude | Longitude | Altitude | Speed | Heading |
|---|---|---|---|---|---|
| 2026-05-05 03:37 | 50.78750 | 6.87118 | 15749 ft | 410 kts | 282° |
| 2026-05-05 03:37 | 50.79395 | 6.82732 | 16865 ft | 416 kts | 282° |
| 2026-05-05 03:37 | 50.80058 | 6.78291 | 17994 ft | 420 kts | 282° |
| 2026-05-05 03:37 | 50.80725 | 6.73856 | 19325 ft | 418 kts | 282° |
| 2026-05-05 03:38 | 50.81375 | 6.69392 | 20692 ft | 414 kts | 279° |
| 2026-05-05 03:38 | 50.81650 | 6.64982 | 22043 ft | 408 kts | 269° |
| 2026-05-05 03:38 | 50.81392 | 6.60545 | 23064 ft | 405 kts | 259° |
| 2026-05-05 03:38 | 50.80633 | 6.56339 | 23632 ft | 400 kts | 250° |
| 2026-05-05 03:39 | 50.79602 | 6.52265 | 23818 ft | 396 kts | 247° |
| 2026-05-05 03:39 | 50.78518 | 6.48329 | 23862 ft | 392 kts | 247° |
| 2026-05-05 03:39 | 50.77437 | 6.44406 | 23924 ft | 391 kts | 247° |
| 2026-05-05 03:39 | 50.76385 | 6.40444 | 23931 ft | 391 kts | 248° |
| 2026-05-05 03:40 | 50.75367 | 6.36462 | 23947 ft | 391 kts | 249° |
| 2026-05-05 03:40 | 50.74359 | 6.32457 | 23952 ft | 392 kts | 248° |
| 2026-05-05 03:40 | 50.73371 | 6.28503 | 23961 ft | 392 kts | 249° |
| 2026-05-05 03:40 | 50.72366 | 6.24475 | 23956 ft | 392 kts | 249° |
| 2026-05-05 03:41 | 50.71352 | 6.20478 | 23963 ft | 392 kts | 248° |
| 2026-05-05 03:41 | 50.70322 | 6.16533 | 23962 ft | 393 kts | 248° |
| 2026-05-05 03:41 | 50.69297 | 6.12579 | 23965 ft | 393 kts | 248° |
| 2026-05-05 03:41 | 50.68265 | 6.08601 | 23965 ft | 393 kts | 248° |
| 2026-05-05 03:42 | 50.67216 | 6.04582 | 23964 ft | 393 kts | 248° |
| 2026-05-05 03:42 | 50.66195 | 6.00630 | 23966 ft | 394 kts | 248° |
| 2026-05-05 03:42 | 50.65158 | 5.96598 | 23968 ft | 394 kts | 248° |
| 2026-05-05 03:42 | 50.64132 | 5.92622 | 23967 ft | 394 kts | 248° |
| 2026-05-05 03:43 | 50.63098 | 5.88623 | 23971 ft | 395 kts | 248° |
| 2026-05-05 03:43 | 50.62067 | 5.84622 | 23970 ft | 395 kts | 248° |
| 2026-05-05 03:43 | 50.61043 | 5.80631 | 23970 ft | 396 kts | 248° |
| 2026-05-05 03:43 | 50.60041 | 5.76638 | 23956 ft | 396 kts | 251° |
| 2026-05-05 03:44 | 50.59385 | 5.72412 | 23994 ft | 397 kts | 262° |
| 2026-05-05 03:44 | 50.59294 | 5.68075 | 23989 ft | 398 kts | 274° |
| 2026-05-05 03:44 | 50.59733 | 5.63822 | 23988 ft | 399 kts | 283° |
| 2026-05-05 03:44 | 50.60492 | 5.59628 | 23989 ft | 401 kts | 286° |
| 2026-05-05 03:45 | 50.61329 | 5.55440 | 23979 ft | 401 kts | 286° |
| 2026-05-05 03:45 | 50.62129 | 5.51247 | 23981 ft | 401 kts | 285° |
| 2026-05-05 03:45 | 50.62889 | 5.47030 | 23981 ft | 402 kts | 284° |
| 2026-05-05 03:45 | 50.63634 | 5.42762 | 23985 ft | 401 kts | 284° |
| 2026-05-05 03:46 | 50.64362 | 5.38544 | 23988 ft | 401 kts | 284° |
| 2026-05-05 03:46 | 50.65094 | 5.34304 | 23989 ft | 401 kts | 283° |
| 2026-05-05 03:46 | 50.65822 | 5.30099 | 23991 ft | 401 kts | 283° |
| 2026-05-05 03:46 | 50.66563 | 5.25852 | 23993 ft | 401 kts | 284° |
| 2026-05-05 03:47 | 50.67308 | 5.21592 | 23996 ft | 401 kts | 284° |
| 2026-05-05 03:47 | 50.68051 | 5.17371 | 23996 ft | 401 kts | 284° |
| 2026-05-05 03:47 | 50.68796 | 5.13153 | 23997 ft | 402 kts | 284° |
| 2026-05-05 03:47 | 50.69551 | 5.08890 | 23997 ft | 402 kts | 284° |
| 2026-05-05 03:48 | 50.70300 | 5.04675 | 23999 ft | 402 kts | 284° |
| 2026-05-05 03:48 | 50.71055 | 5.00442 | 23993 ft | 402 kts | 284° |
| 2026-05-05 03:48 | 50.71817 | 4.96177 | 23997 ft | 403 kts | 284° |
| 2026-05-05 03:48 | 50.72567 | 4.91994 | 24002 ft | 403 kts | 284° |
| 2026-05-05 03:49 | 50.73328 | 4.87749 | 24001 ft | 403 kts | 285° |
| 2026-05-05 03:49 | 50.74100 | 4.83457 | 23999 ft | 404 kts | 284° |
| 2026-05-05 03:49 | 50.74729 | 4.79190 | 23996 ft | 403 kts | 279° |
| 2026-05-05 03:49 | 50.75073 | 4.74827 | 24000 ft | 403 kts | 272° |
| 2026-05-05 03:50 | 50.75120 | 4.70412 | 24004 ft | 402 kts | 268° |
| 2026-05-05 03:50 | 50.75028 | 4.66008 | 24002 ft | 402 kts | 267° |
| 2026-05-05 03:50 | 50.74822 | 4.61637 | 23959 ft | 401 kts | 260° |
| 2026-05-05 03:50 | 50.74092 | 4.57407 | 23990 ft | 400 kts | 250° |
| 2026-05-05 03:51 | 50.73098 | 4.53317 | 23991 ft | 401 kts | 249° |
| 2026-05-05 03:51 | 50.72068 | 4.49214 | 23986 ft | 402 kts | 249° |
| 2026-05-05 03:51 | 50.71079 | 4.45146 | 23990 ft | 402 kts | 250° |
| 2026-05-05 03:51 | 50.70121 | 4.40986 | 23986 ft | 402 kts | 251° |
| 2026-05-05 03:52 | 50.69200 | 4.36838 | 23990 ft | 402 kts | 251° |
| 2026-05-05 03:52 | 50.68291 | 4.32688 | 23988 ft | 402 kts | 250° |
| 2026-05-05 03:52 | 50.67372 | 4.28512 | 23993 ft | 402 kts | 250° |
| 2026-05-05 03:52 | 50.66454 | 4.24387 | 24000 ft | 403 kts | 250° |
| 2026-05-05 03:53 | 50.65523 | 4.20192 | 23995 ft | 403 kts | 250° |
| 2026-05-05 03:53 | 50.64603 | 4.16003 | 23997 ft | 403 kts | 251° |
| 2026-05-05 03:53 | 50.63692 | 4.11841 | 24001 ft | 403 kts | 251° |
| 2026-05-05 03:53 | 50.62780 | 4.07689 | 24001 ft | 403 kts | 250° |
| 2026-05-05 03:54 | 50.61859 | 4.03507 | 23999 ft | 403 kts | 251° |
| 2026-05-05 03:54 | 50.60948 | 3.99347 | 23993 ft | 403 kts | 251° |
| 2026-05-05 03:54 | 50.60038 | 3.95168 | 23995 ft | 403 kts | 251° |
| 2026-05-05 03:54 | 50.58955 | 3.91131 | 23951 ft | 404 kts | 239° |
| 2026-05-05 03:55 | 50.57233 | 3.87645 | 23991 ft | 404 kts | 223° |
| 2026-05-05 03:55 | 50.54991 | 3.85105 | 23997 ft | 404 kts | 207° |
| 2026-05-05 03:55 | 50.52314 | 3.83633 | 23995 ft | 405 kts | 191° |
| 2026-05-05 03:55 | 50.49503 | 3.83395 | 23992 ft | 407 kts | 176° |
| 2026-05-05 03:56 | 50.46705 | 3.84007 | 23994 ft | 410 kts | 171° |
| 2026-05-05 03:56 | 50.43902 | 3.84849 | 23969 ft | 410 kts | 171° |
| 2026-05-05 03:56 | 50.41077 | 3.85666 | 23964 ft | 411 kts | 171° |
| 2026-05-05 03:56 | 50.38285 | 3.86382 | 23962 ft | 410 kts | 173° |
| 2026-05-05 03:57 | 50.35452 | 3.87031 | 23960 ft | 411 kts | 173° |
| 2026-05-05 03:57 | 50.32615 | 3.87633 | 23955 ft | 410 kts | 174° |
| 2026-05-05 03:57 | 50.29779 | 3.88110 | 23957 ft | 410 kts | 176° |
| 2026-05-05 03:57 | 50.26940 | 3.88537 | 23952 ft | 410 kts | 175° |
| 2026-05-05 03:58 | 50.24091 | 3.88996 | 23958 ft | 411 kts | 175° |
| 2026-05-05 03:58 | 50.21246 | 3.89487 | 23957 ft | 411 kts | 174° |
| 2026-05-05 03:58 | 50.18425 | 3.89975 | 23959 ft | 411 kts | 175° |
| 2026-05-05 03:58 | 50.15599 | 3.90446 | 23960 ft | 410 kts | 175° |
| 2026-05-05 03:59 | 50.12769 | 3.90914 | 23956 ft | 410 kts | 175° |
| 2026-05-05 03:59 | 50.09947 | 3.91393 | 23958 ft | 410 kts | 175° |
| 2026-05-05 03:59 | 50.07101 | 3.91877 | 23959 ft | 409 kts | 175° |
| 2026-05-05 03:59 | 50.04286 | 3.92342 | 23953 ft | 409 kts | 175° |
| 2026-05-05 04:00 | 50.01453 | 3.92816 | 23937 ft | 410 kts | 175° |
| 2026-05-05 04:00 | 49.98615 | 3.93290 | 23916 ft | 410 kts | 175° |
| 2026-05-05 04:00 | 49.95794 | 3.93772 | 23903 ft | 410 kts | 175° |
| 2026-05-05 04:00 | 49.92977 | 3.94250 | 23902 ft | 411 kts | 175° |
| 2026-05-05 04:01 | 49.90100 | 3.94730 | 23900 ft | 409 kts | 175° |
| 2026-05-05 04:01 | 49.87313 | 3.95195 | 23875 ft | 404 kts | 174° |
| 2026-05-05 04:01 | 49.84500 | 3.95670 | 23892 ft | 414 kts | 174° |
| 2026-05-05 04:01 | 49.81643 | 3.96154 | 23925 ft | 414 kts | 174° |
| 2026-05-05 04:02 | 49.78777 | 3.96637 | 23455 ft | 412 kts | 174° |
| 2026-05-05 04:02 | 49.75964 | 3.97106 | 22903 ft | 409 kts | 174° |
| 2026-05-05 04:02 | 49.73143 | 3.97582 | 22397 ft | 405 kts | 174° |
| 2026-05-05 04:02 | 49.70361 | 3.98052 | 21859 ft | 402 kts | 174° |
| 2026-05-05 04:03 | 49.67596 | 3.98518 | 21354 ft | 398 kts | 174° |
| 2026-05-05 04:03 | 49.64872 | 3.98974 | 20839 ft | 395 kts | 174° |
| 2026-05-05 04:03 | 49.62159 | 3.99424 | 20318 ft | 391 kts | 175° |
| 2026-05-05 04:03 | 49.59477 | 3.99300 | 19779 ft | 386 kts | 191° |
| 2026-05-05 04:04 | 49.56976 | 3.97973 | 19249 ft | 383 kts | 208° |
| 2026-05-05 04:04 | 49.54843 | 3.95517 | 18693 ft | 382 kts | 226° |
| 2026-05-05 04:04 | 49.53267 | 3.92332 | 18446 ft | 371 kts | 236° |
| 2026-05-05 04:04 | 49.51960 | 3.88986 | 18108 ft | 365 kts | 239° |
| 2026-05-05 04:05 | 49.50690 | 3.85634 | 17696 ft | 362 kts | 238° |
| 2026-05-05 04:05 | 49.49381 | 3.82315 | 17255 ft | 359 kts | 237° |
| 2026-05-05 04:05 | 49.48134 | 3.79048 | 16795 ft | 357 kts | 242° |
| 2026-05-05 04:05 | 49.47132 | 3.75586 | 16356 ft | 356 kts | 250° |
| 2026-05-05 04:06 | 49.46414 | 3.71937 | 15905 ft | 355 kts | 255° |
| 2026-05-05 04:06 | 49.45829 | 3.68289 | 15468 ft | 353 kts | 255° |
| 2026-05-05 04:06 | 49.45242 | 3.64622 | 15050 ft | 350 kts | 255° |
| 2026-05-05 04:06 | 49.44664 | 3.61025 | 14658 ft | 347 kts | 255° |
| 2026-05-05 04:07 | 49.44090 | 3.57447 | 14236 ft | 346 kts | 256° |
| 2026-05-05 04:07 | 49.43514 | 3.53884 | 13839 ft | 343 kts | 256° |
| 2026-05-05 04:07 | 49.42942 | 3.50373 | 13457 ft | 341 kts | 256° |
| 2026-05-05 04:07 | 49.42364 | 3.46854 | 13048 ft | 339 kts | 256° |
| 2026-05-05 04:08 | 49.41783 | 3.43350 | 12698 ft | 335 kts | 256° |
| 2026-05-05 04:08 | 49.41210 | 3.39934 | 12577 ft | 324 kts | 256° |
| 2026-05-05 04:08 | 49.40655 | 3.36658 | 12351 ft | 319 kts | 256° |
| 2026-05-05 04:08 | 49.40096 | 3.33382 | 12050 ft | 315 kts | 255° |
| 2026-05-05 04:09 | 49.39540 | 3.30147 | 11724 ft | 313 kts | 255° |
| 2026-05-05 04:09 | 49.38983 | 3.26920 | 11362 ft | 313 kts | 255° |
| 2026-05-05 04:09 | 49.38428 | 3.23725 | 11014 ft | 312 kts | 255° |
| 2026-05-05 04:09 | 49.37864 | 3.20503 | 10653 ft | 311 kts | 255° |
| 2026-05-05 04:10 | 49.37297 | 3.17298 | 10320 ft | 310 kts | 255° |
| 2026-05-05 04:10 | 49.36731 | 3.14136 | 9988 ft | 309 kts | 255° |
| 2026-05-05 04:10 | 49.36163 | 3.10985 | 9682 ft | 306 kts | 255° |
| 2026-05-05 04:10 | 49.35601 | 3.07886 | 9539 ft | 299 kts | 255° |
| 2026-05-05 04:11 | 49.35049 | 3.04859 | 9257 ft | 295 kts | 255° |
| 2026-05-05 04:11 | 49.34493 | 3.01822 | 8933 ft | 293 kts | 255° |
| 2026-05-05 04:11 | 49.33945 | 2.98831 | 8616 ft | 293 kts | 255° |
| 2026-05-05 04:11 | 49.33400 | 2.95857 | 8176 ft | 291 kts | 255° |
| 2026-05-05 04:12 | 49.32861 | 2.92911 | 7696 ft | 290 kts | 255° |
| 2026-05-05 04:12 | 49.32320 | 2.89953 | 7229 ft | 288 kts | 255° |
| 2026-05-05 04:12 | 49.31781 | 2.87014 | 6774 ft | 286 kts | 255° |
| 2026-05-05 04:12 | 49.31247 | 2.84108 | 6307 ft | 284 kts | 255° |
| 2026-05-05 04:13 | 49.30706 | 2.81185 | 5845 ft | 283 kts | 255° |
| 2026-05-05 04:13 | 49.30173 | 2.78318 | 5393 ft | 282 kts | 255° |
| 2026-05-05 04:13 | 49.29636 | 2.75432 | 4940 ft | 280 kts | 255° |
| 2026-05-05 04:13 | 49.29107 | 2.72593 | 4501 ft | 279 kts | 255° |
| 2026-05-05 04:14 | 49.28578 | 2.69737 | 4039 ft | 275 kts | 255° |
| 2026-05-05 04:14 | 49.28072 | 2.66980 | 3593 ft | 263 kts | 255° |
| 2026-05-05 04:14 | 49.27591 | 2.64331 | 3168 ft | 254 kts | 255° |
| 2026-05-05 04:14 | 49.27125 | 2.61781 | 2904 ft | 247 kts | 255° |
| 2026-05-05 04:15 | 49.26653 | 2.59253 | 2876 ft | 246 kts | 255° |
| 2026-05-05 04:15 | 49.26186 | 2.56753 | 2930 ft | 246 kts | 255° |
| 2026-05-05 04:15 | 49.25713 | 2.54218 | 2932 ft | 246 kts | 255° |
| 2026-05-05 04:15 | 49.25248 | 2.51725 | 2947 ft | 246 kts | 255° |
| 2026-05-05 04:16 | 49.24778 | 2.49210 | 2952 ft | 246 kts | 255° |
| 2026-05-05 04:16 | 49.24307 | 2.46695 | 2956 ft | 246 kts | 255° |
| 2026-05-05 04:16 | 49.23831 | 2.44175 | 2956 ft | 246 kts | 255° |
| 2026-05-05 04:16 | 49.23352 | 2.41660 | 2950 ft | 246 kts | 255° |
| 2026-05-05 04:17 | 49.22878 | 2.39135 | 2965 ft | 247 kts | 255° |
| 2026-05-05 04:17 | 49.22408 | 2.36632 | 2960 ft | 247 kts | 255° |
| 2026-05-05 04:17 | 49.21940 | 2.34099 | 2956 ft | 247 kts | 254° |
| 2026-05-05 04:17 | 49.21475 | 2.31579 | 2957 ft | 247 kts | 254° |
| 2026-05-05 04:18 | 49.21006 | 2.29026 | 2951 ft | 247 kts | 255° |
| 2026-05-05 04:18 | 49.20427 | 2.26565 | 2919 ft | 247 kts | 237° |
| 2026-05-05 04:18 | 49.19218 | 2.24804 | 2998 ft | 244 kts | 206° |
| 2026-05-05 04:18 | 49.17610 | 2.24079 | 2994 ft | 240 kts | 184° |
| 2026-05-05 04:19 | 49.15957 | 2.24005 | 2964 ft | 237 kts | 174° |
| 2026-05-05 04:19 | 49.14326 | 2.24218 | 2939 ft | 236 kts | 169° |
| 2026-05-05 04:19 | 49.12703 | 2.24566 | 2941 ft | 235 kts | 167° |
| 2026-05-05 04:19 | 49.11097 | 2.24971 | 2942 ft | 235 kts | 166° |
| 2026-05-05 04:20 | 49.09470 | 2.25407 | 2947 ft | 235 kts | 166° |
| 2026-05-05 04:20 | 49.07864 | 2.25844 | 2948 ft | 235 kts | 166° |
| 2026-05-05 04:20 | 49.06246 | 2.26287 | 2949 ft | 234 kts | 166° |
| 2026-05-05 04:20 | 49.04661 | 2.26720 | 2955 ft | 234 kts | 166° |
| 2026-05-05 04:21 | 49.03086 | 2.27324 | 2913 ft | 229 kts | 149° |
| 2026-05-05 04:21 | 49.02223 | 2.28356 | 3003 ft | 224 kts | 127° |